NATURA VA

 METAR AND TAF INFORMATION
METAR FOR GMMH
ADDS - METARS form results

(0357 UTC 16 January 2019)
Data provider http://aviationweather.gov/metar/data/
 
Forecast for: GMMH (DAKHLA AIRPORT , MA)
Text: TAF GMMH 152300Z 1600/1706 04011KT 8000 NSC
Forecast period: 0000 UTC 16 January 2019 to 0600 UTC 17 January 2019
Forecast type: FROM: standard forecast or significant change
Winds: from the NE (40 degrees) at 13 MPH (11 knots; 5.7 m/s)
Visibility: 5 miles (8 km)
Ceiling: unknown
Clouds: missing
Weather: no significant weather forecast for this period
Text: PROB40 1604/1611 3000 BR
Forecast period: 0400 to 1100 UTC 16 January 2019
Forecast type: PROBABLE: 40 percent likelihood of the following during this time
Visibility: 1.86 miles (2.99 km)
Ceiling: unknown
Clouds: missing
Weather: BR  (mist)

 AIRPORT MAP

 RUNWAY INFORMATION
Runway 03 Runway length 9842 ft Runway width 148 ft
Runway elevation 36 ft Runway displaced threshold 0 ft Runway heading 23
Runway 21 Runway length 9842 ft Runway width 148 ft
Runway elevation 27 ft Runway displaced threshold 0 ft Runway heading 203

 AIRPORT FREQUENCIES
Type TWR Name TWR Frequency 118.1 MHZ

 AIRPORT NEAR NAVIGATION AIDS
Type NDB Name Dakhla Frequency 221 KHZ
Type VOR-DME Name Dakhla Frequency 115800 KHZ



Powered by Virtual Airlines Manager [v2.6.2]